sensor_id;sensor_type;location;lat;lon;timestamp;temperature;humidity
3053;DHT22;1536;51.098;6.414;2023-01-08T00:00:13;12.10;99.90
3053;DHT22;1536;51.098;6.414;2023-01-08T00:02:40;12.00;99.90
3053;DHT22;1536;51.098;6.414;2023-01-08T00:05:08;12.10;99.90
3053;DHT22;1536;51.098;6.414;2023-01-08T00:07:36;12.10;99.90
3053;DHT22;1536;51.098;6.414;2023-01-08T00:10:04;12.10;99.90
3053;DHT22;1536;51.098;6.414;2023-01-08T00:12:31;12.10;99.90
3053;DHT22;1536;51.098;6.414;2023-01-08T00:14:59;12.10;99.90
3053;DHT22;1536;51.098;6.414;2023-01-08T00:17:25;12.10;99.90
3053;DHT22;1536;51.098;6.414;2023-01-08T00:19:52;12.10;99.90
3053;DHT22;1536;51.098;6.414;2023-01-08T00:22:19;12.10;99.90
3053;DHT22;1536;51.098;6.414;2023-01-08T00:24:45;12.10;99.90
3053;DHT22;1536;51.098;6.414;2023-01-08T00:27:14;12.10;99.90
3053;DHT22;1536;51.098;6.414;2023-01-08T00:29:40;12.20;99.90
3053;DHT22;1536;51.098;6.414;2023-01-08T00:32:07;12.20;99.90
3053;DHT22;1536;51.098;6.414;2023-01-08T00:34:34;12.20;99.90
3053;DHT22;1536;51.098;6.414;2023-01-08T00:37:00;12.10;99.90
3053;DHT22;1536;51.098;6.414;2023-01-08T00:39:27;12.10;99.90
3053;DHT22;1536;51.098;6.414;2023-01-08T00:41:54;12.10;99.90
3053;DHT22;1536;51.098;6.414;2023-01-08T00:44:23;12.10;99.90
3053;DHT22;1536;51.098;6.414;2023-01-08T00:46:50;12.10;99.90
3053;DHT22;1536;51.098;6.414;2023-01-08T00:49:16;12.20;99.90
3053;DHT22;1536;51.098;6.414;2023-01-08T00:51:44;12.10;99.90
3053;DHT22;1536;51.098;6.414;2023-01-08T00:54:11;12.10;99.90
3053;DHT22;1536;51.098;6.414;2023-01-08T00:56:37;12.10;99.90
3053;DHT22;1536;51.098;6.414;2023-01-08T00:59:04;12.10;99.90
3053;DHT22;1536;51.098;6.414;2023-01-08T01:01:38;12.20;99.90
3053;DHT22;1536;51.098;6.414;2023-01-08T01:04:04;12.10;99.90
3053;DHT22;1536;51.098;6.414;2023-01-08T01:06:31;12.20;99.90
3053;DHT22;1536;51.098;6.414;2023-01-08T01:08:58;12.10;99.90
3053;DHT22;1536;51.098;6.414;2023-01-08T01:11:26;12.20;99.90
3053;DHT22;1536;51.098;6.414;2023-01-08T01:13:54;12.20;99.90
3053;DHT22;1536;51.098;6.414;2023-01-08T01:16:21;12.10;99.90
3053;DHT22;1536;51.098;6.414;2023-01-08T01:18:49;12.20;99.90
3053;DHT22;1536;51.098;6.414;2023-01-08T01:21:21;12.20;99.90
3053;DHT22;1536;51.098;6.414;2023-01-08T01:23:48;12.10;99.90
3053;DHT22;1536;51.098;6.414;2023-01-08T01:26:17;12.10;99.90
3053;DHT22;1536;51.098;6.414;2023-01-08T01:28:46;12.20;99.90
3053;DHT22;1536;51.098;6.414;2023-01-08T01:31:13;12.20;99.90
3053;DHT22;1536;51.098;6.414;2023-01-08T01:33:41;12.20;99.90
3053;DHT22;1536;51.098;6.414;2023-01-08T01:36:10;12.20;99.90
3053;DHT22;1536;51.098;6.414;2023-01-08T01:38:37;12.20;99.90
3053;DHT22;1536;51.098;6.414;2023-01-08T01:41:04;12.30;99.90
3053;DHT22;1536;51.098;6.414;2023-01-08T01:43:35;12.30;99.90
3053;DHT22;1536;51.098;6.414;2023-01-08T01:46:04;12.30;99.90
3053;DHT22;1536;51.098;6.414;2023-01-08T01:48:32;12.30;99.90
3053;DHT22;1536;51.098;6.414;2023-01-08T01:50:59;12.30;99.90
3053;DHT22;1536;51.098;6.414;2023-01-08T01:53:31;12.30;99.90
3053;DHT22;1536;51.098;6.414;2023-01-08T01:55:59;12.30;99.90
3053;DHT22;1536;51.098;6.414;2023-01-08T01:58:28;12.30;99.90
3053;DHT22;1536;51.098;6.414;2023-01-08T02:00:57;12.30;99.90
3053;DHT22;1536;51.098;6.414;2023-01-08T02:03:29;12.30;99.90
3053;DHT22;1536;51.098;6.414;2023-01-08T02:06:01;12.30;99.90
3053;DHT22;1536;51.098;6.414;2023-01-08T02:08:37;12.30;99.90
3053;DHT22;1536;51.098;6.414;2023-01-08T02:11:10;12.30;99.90
3053;DHT22;1536;51.098;6.414;2023-01-08T02:13:39;12.30;99.90
3053;DHT22;1536;51.098;6.414;2023-01-08T02:16:15;12.30;99.90
3053;DHT22;1536;51.098;6.414;2023-01-08T02:18:46;12.20;99.90
3053;DHT22;1536;51.098;6.414;2023-01-08T02:21:19;12.20;99.90
3053;DHT22;1536;51.098;6.414;2023-01-08T02:23:57;12.20;99.90
3053;DHT22;1536;51.098;6.414;2023-01-08T02:26:27;12.10;99.90
3053;DHT22;1536;51.098;6.414;2023-01-08T02:28:57;12.10;99.90
3053;DHT22;1536;51.098;6.414;2023-01-08T02:31:26;12.10;99.90
3053;DHT22;1536;51.098;6.414;2023-01-08T02:33:54;12.10;99.90
3053;DHT22;1536;51.098;6.414;2023-01-08T02:36:34;12.10;99.90
3053;DHT22;1536;51.098;6.414;2023-01-08T02:39:11;12.10;99.90
3053;DHT22;1536;51.098;6.414;2023-01-08T02:41:51;12.10;99.90
3053;DHT22;1536;51.098;6.414;2023-01-08T02:44:21;12.20;99.90
3053;DHT22;1536;51.098;6.414;2023-01-08T02:46:53;12.20;99.90
3053;DHT22;1536;51.098;6.414;2023-01-08T02:49:23;12.20;99.90
3053;DHT22;1536;51.098;6.414;2023-01-08T02:51:55;12.20;99.90
3053;DHT22;1536;51.098;6.414;2023-01-08T02:54:25;12.20;99.90
3053;DHT22;1536;51.098;6.414;2023-01-08T02:56:59;12.20;99.90
3053;DHT22;1536;51.098;6.414;2023-01-08T02:59:29;12.20;99.90
3053;DHT22;1536;51.098;6.414;2023-01-08T03:01:57;12.20;99.90
3053;DHT22;1536;51.098;6.414;2023-01-08T03:04:25;12.20;99.90
3053;DHT22;1536;51.098;6.414;2023-01-08T03:06:53;12.10;99.90
3053;DHT22;1536;51.098;6.414;2023-01-08T03:09:20;12.20;99.90
3053;DHT22;1536;51.098;6.414;2023-01-08T03:11:52;12.10;99.90
3053;DHT22;1536;51.098;6.414;2023-01-08T03:14:24;12.10;99.90
3053;DHT22;1536;51.098;6.414;2023-01-08T03:16:55;12.10;99.90
3053;DHT22;1536;51.098;6.414;2023-01-08T03:19:26;12.20;99.90
3053;DHT22;1536;51.098;6.414;2023-01-08T03:21:55;12.10;99.90
3053;DHT22;1536;51.098;6.414;2023-01-08T03:24:25;12.10;99.90
3053;DHT22;1536;51.098;6.414;2023-01-08T03:26:55;12.20;99.90
3053;DHT22;1536;51.098;6.414;2023-01-08T03:29:25;12.20;99.90
3053;DHT22;1536;51.098;6.414;2023-01-08T03:31:56;12.20;99.90
3053;DHT22;1536;51.098;6.414;2023-01-08T03:34:26;12.20;99.90
3053;DHT22;1536;51.098;6.414;2023-01-08T03:36:57;12.20;99.90
3053;DHT22;1536;51.098;6.414;2023-01-08T03:39:29;12.20;99.90
3053;DHT22;1536;51.098;6.414;2023-01-08T03:41:58;12.20;99.90
3053;DHT22;1536;51.098;6.414;2023-01-08T03:44:27;12.20;99.90
3053;DHT22;1536;51.098;6.414;2023-01-08T03:46:54;12.20;99.90
3053;DHT22;1536;51.098;6.414;2023-01-08T03:49:24;12.10;99.90
3053;DHT22;1536;51.098;6.414;2023-01-08T03:51:51;12.20;99.90
3053;DHT22;1536;51.098;6.414;2023-01-08T03:54:19;12.20;99.90
3053;DHT22;1536;51.098;6.414;2023-01-08T03:56:46;12.20;99.90
3053;DHT22;1536;51.098;6.414;2023-01-08T03:59:14;12.20;99.90
3053;DHT22;1536;51.098;6.414;2023-01-08T04:01:42;12.20;99.90
3053;DHT22;1536;51.098;6.414;2023-01-08T04:04:10;12.20;99.90
3053;DHT22;1536;51.098;6.414;2023-01-08T04:06:37;12.20;99.90
3053;DHT22;1536;51.098;6.414;2023-01-08T04:09:04;12.20;99.90
3053;DHT22;1536;51.098;6.414;2023-01-08T04:11:31;12.20;99.90
3053;DHT22;1536;51.098;6.414;2023-01-08T04:13:58;12.30;99.90
3053;DHT22;1536;51.098;6.414;2023-01-08T04:16:25;12.30;99.90
3053;DHT22;1536;51.098;6.414;2023-01-08T04:18:53;12.30;99.90
3053;DHT22;1536;51.098;6.414;2023-01-08T04:21:19;12.30;99.90
3053;DHT22;1536;51.098;6.414;2023-01-08T04:23:46;12.30;99.90
3053;DHT22;1536;51.098;6.414;2023-01-08T04:26:13;12.30;99.90
3053;DHT22;1536;51.098;6.414;2023-01-08T04:28:40;12.30;99.90
3053;DHT22;1536;51.098;6.414;2023-01-08T04:31:07;12.20;99.90
3053;DHT22;1536;51.098;6.414;2023-01-08T04:33:34;12.20;99.90
3053;DHT22;1536;51.098;6.414;2023-01-08T04:36:03;12.20;99.90
3053;DHT22;1536;51.098;6.414;2023-01-08T04:38:31;12.20;99.90
3053;DHT22;1536;51.098;6.414;2023-01-08T04:40:59;12.20;99.90
3053;DHT22;1536;51.098;6.414;2023-01-08T04:43:26;12.10;99.90
3053;DHT22;1536;51.098;6.414;2023-01-08T04:45:56;12.10;99.90
3053;DHT22;1536;51.098;6.414;2023-01-08T04:48:23;12.10;99.90
3053;DHT22;1536;51.098;6.414;2023-01-08T04:50:50;12.10;99.90
3053;DHT22;1536;51.098;6.414;2023-01-08T04:53:18;12.10;99.90
3053;DHT22;1536;51.098;6.414;2023-01-08T04:55:45;12.10;99.90
3053;DHT22;1536;51.098;6.414;2023-01-08T04:58:11;12.10;99.90
3053;DHT22;1536;51.098;6.414;2023-01-08T05:00:38;12.10;99.90
3053;DHT22;1536;51.098;6.414;2023-01-08T05:03:05;12.10;99.90
3053;DHT22;1536;51.098;6.414;2023-01-08T05:05:33;12.10;99.90
3053;DHT22;1536;51.098;6.414;2023-01-08T05:08:00;12.10;99.90
3053;DHT22;1536;51.098;6.414;2023-01-08T05:10:28;12.10;99.90
3053;DHT22;1536;51.098;6.414;2023-01-08T05:12:57;12.10;99.90
3053;DHT22;1536;51.098;6.414;2023-01-08T05:15:24;12.10;99.90
3053;DHT22;1536;51.098;6.414;2023-01-08T05:17:57;12.00;99.90
3053;DHT22;1536;51.098;6.414;2023-01-08T05:20:24;12.00;99.90
3053;DHT22;1536;51.098;6.414;2023-01-08T05:22:51;12.00;99.90
3053;DHT22;1536;51.098;6.414;2023-01-08T05:25:17;12.00;99.90
3053;DHT22;1536;51.098;6.414;2023-01-08T05:27:46;11.90;99.90
3053;DHT22;1536;51.098;6.414;2023-01-08T05:30:13;11.90;99.90
3053;DHT22;1536;51.098;6.414;2023-01-08T05:32:40;11.90;99.90
3053;DHT22;1536;51.098;6.414;2023-01-08T05:35:07;12.00;99.90
3053;DHT22;1536;51.098;6.414;2023-01-08T05:37:34;12.00;99.90
3053;DHT22;1536;51.098;6.414;2023-01-08T05:40:02;12.00;99.90
3053;DHT22;1536;51.098;6.414;2023-01-08T05:42:28;12.00;99.90
3053;DHT22;1536;51.098;6.414;2023-01-08T05:44:56;12.00;99.90
3053;DHT22;1536;51.098;6.414;2023-01-08T05:47:23;12.00;99.90
3053;DHT22;1536;51.098;6.414;2023-01-08T05:49:50;12.00;99.90
3053;DHT22;1536;51.098;6.414;2023-01-08T05:52:17;12.00;99.90
3053;DHT22;1536;51.098;6.414;2023-01-08T05:54:43;12.00;99.90
3053;DHT22;1536;51.098;6.414;2023-01-08T05:57:10;12.00;99.90
3053;DHT22;1536;51.098;6.414;2023-01-08T05:59:37;12.00;99.90
3053;DHT22;1536;51.098;6.414;2023-01-08T06:02:06;12.00;99.90
3053;DHT22;1536;51.098;6.414;2023-01-08T06:04:33;12.10;99.90
3053;DHT22;1536;51.098;6.414;2023-01-08T06:07:00;12.00;99.90
3053;DHT22;1536;51.098;6.414;2023-01-08T06:09:27;11.90;99.90
3053;DHT22;1536;51.098;6.414;2023-01-08T06:11:53;11.80;99.90
3053;DHT22;1536;51.098;6.414;2023-01-08T06:14:22;11.70;99.90
3053;DHT22;1536;51.098;6.414;2023-01-08T06:16:50;11.60;99.90
3053;DHT22;1536;51.098;6.414;2023-01-08T06:19:18;11.50;99.90
3053;DHT22;1536;51.098;6.414;2023-01-08T06:21:45;11.40;99.90
3053;DHT22;1536;51.098;6.414;2023-01-08T06:24:11;11.40;99.90
3053;DHT22;1536;51.098;6.414;2023-01-08T06:26:38;11.30;99.90
3053;DHT22;1536;51.098;6.414;2023-01-08T06:29:05;11.20;99.90
3053;DHT22;1536;51.098;6.414;2023-01-08T06:31:32;11.20;99.90
3053;DHT22;1536;51.098;6.414;2023-01-08T06:33:59;11.10;99.90
3053;DHT22;1536;51.098;6.414;2023-01-08T06:36:27;11.10;99.90
3053;DHT22;1536;51.098;6.414;2023-01-08T06:38:53;11.10;99.90
3053;DHT22;1536;51.098;6.414;2023-01-08T06:41:21;11.00;99.90
3053;DHT22;1536;51.098;6.414;2023-01-08T06:43:47;11.00;99.90
3053;DHT22;1536;51.098;6.414;2023-01-08T06:46:14;11.00;99.90
3053;DHT22;1536;51.098;6.414;2023-01-08T06:48:41;10.90;99.90
3053;DHT22;1536;51.098;6.414;2023-01-08T06:51:08;10.90;99.90
3053;DHT22;1536;51.098;6.414;2023-01-08T06:53:36;10.80;99.90
3053;DHT22;1536;51.098;6.414;2023-01-08T06:56:03;10.80;99.90
3053;DHT22;1536;51.098;6.414;2023-01-08T06:58:33;10.80;99.90
3053;DHT22;1536;51.098;6.414;2023-01-08T07:01:01;10.80;99.90
3053;DHT22;1536;51.098;6.414;2023-01-08T07:03:28;10.80;99.90
3053;DHT22;1536;51.098;6.414;2023-01-08T07:05:55;10.80;99.90
3053;DHT22;1536;51.098;6.414;2023-01-08T07:08:22;10.70;99.90
3053;DHT22;1536;51.098;6.414;2023-01-08T07:10:50;10.70;99.90
3053;DHT22;1536;51.098;6.414;2023-01-08T07:13:16;10.70;99.90
3053;DHT22;1536;51.098;6.414;2023-01-08T07:15:43;10.70;99.90
3053;DHT22;1536;51.098;6.414;2023-01-08T07:18:11;10.70;99.90
3053;DHT22;1536;51.098;6.414;2023-01-08T07:20:38;10.70;99.90
3053;DHT22;1536;51.098;6.414;2023-01-08T07:23:06;10.70;99.90
3053;DHT22;1536;51.098;6.414;2023-01-08T07:25:34;10.70;99.90
3053;DHT22;1536;51.098;6.414;2023-01-08T07:28:02;10.70;99.90
3053;DHT22;1536;51.098;6.414;2023-01-08T07:30:29;10.70;99.90
3053;DHT22;1536;51.098;6.414;2023-01-08T07:33:00;10.70;99.90
3053;DHT22;1536;51.098;6.414;2023-01-08T07:35:27;10.70;99.90
3053;DHT22;1536;51.098;6.414;2023-01-08T07:37:53;10.70;99.90
3053;DHT22;1536;51.098;6.414;2023-01-08T07:40:20;10.70;99.90
3053;DHT22;1536;51.098;6.414;2023-01-08T07:42:47;10.80;99.90
3053;DHT22;1536;51.098;6.414;2023-01-08T07:45:15;10.80;99.90
3053;DHT22;1536;51.098;6.414;2023-01-08T07:47:42;10.80;99.90
3053;DHT22;1536;51.098;6.414;2023-01-08T07:50:08;10.80;99.90
3053;DHT22;1536;51.098;6.414;2023-01-08T07:52:35;10.80;99.90
3053;DHT22;1536;51.098;6.414;2023-01-08T07:55:02;10.80;99.90
3053;DHT22;1536;51.098;6.414;2023-01-08T07:57:30;10.70;99.90
3053;DHT22;1536;51.098;6.414;2023-01-08T07:59:57;10.70;99.90
3053;DHT22;1536;51.098;6.414;2023-01-08T08:02:25;10.70;99.90
3053;DHT22;1536;51.098;6.414;2023-01-08T08:04:52;10.70;99.90
3053;DHT22;1536;51.098;6.414;2023-01-08T08:07:19;10.80;99.90
3053;DHT22;1536;51.098;6.414;2023-01-08T08:09:46;10.70;99.90
3053;DHT22;1536;51.098;6.414;2023-01-08T08:12:12;10.70;99.90
3053;DHT22;1536;51.098;6.414;2023-01-08T08:14:39;10.80;99.90
3053;DHT22;1536;51.098;6.414;2023-01-08T08:17:06;10.70;99.90
3053;DHT22;1536;51.098;6.414;2023-01-08T08:19:34;10.70;99.90
3053;DHT22;1536;51.098;6.414;2023-01-08T08:22:01;10.70;99.90
3053;DHT22;1536;51.098;6.414;2023-01-08T08:24:28;10.70;99.90
3053;DHT22;1536;51.098;6.414;2023-01-08T08:26:54;10.70;99.90
3053;DHT22;1536;51.098;6.414;2023-01-08T08:29:21;10.70;99.90
3053;DHT22;1536;51.098;6.414;2023-01-08T08:31:48;10.70;99.90
3053;DHT22;1536;51.098;6.414;2023-01-08T08:34:14;10.70;99.90
3053;DHT22;1536;51.098;6.414;2023-01-08T08:36:43;10.70;99.90
3053;DHT22;1536;51.098;6.414;2023-01-08T08:39:09;10.80;99.90
3053;DHT22;1536;51.098;6.414;2023-01-08T08:41:36;10.80;99.90
3053;DHT22;1536;51.098;6.414;2023-01-08T08:44:04;10.80;99.90
3053;DHT22;1536;51.098;6.414;2023-01-08T08:46:31;10.80;99.90
3053;DHT22;1536;51.098;6.414;2023-01-08T08:48:58;10.70;99.90
3053;DHT22;1536;51.098;6.414;2023-01-08T08:51:24;10.80;99.90
3053;DHT22;1536;51.098;6.414;2023-01-08T08:53:52;10.80;99.90
3053;DHT22;1536;51.098;6.414;2023-01-08T08:56:19;10.80;99.90
3053;DHT22;1536;51.098;6.414;2023-01-08T08:58:46;10.80;99.90
3053;DHT22;1536;51.098;6.414;2023-01-08T09:01:15;10.80;99.90
3053;DHT22;1536;51.098;6.414;2023-01-08T09:03:42;10.80;99.90
3053;DHT22;1536;51.098;6.414;2023-01-08T09:06:11;10.80;99.90
3053;DHT22;1536;51.098;6.414;2023-01-08T09:08:38;10.80;99.90
3053;DHT22;1536;51.098;6.414;2023-01-08T09:11:06;10.90;99.90
3053;DHT22;1536;51.098;6.414;2023-01-08T09:13:35;10.90;99.90
3053;DHT22;1536;51.098;6.414;2023-01-08T09:16:03;10.90;99.90
3053;DHT22;1536;51.098;6.414;2023-01-08T09:18:30;10.90;99.90
3053;DHT22;1536;51.098;6.414;2023-01-08T09:20:57;10.90;99.90
3053;DHT22;1536;51.098;6.414;2023-01-08T09:23:24;10.90;99.90
3053;DHT22;1536;51.098;6.414;2023-01-08T09:25:58;10.90;99.90
3053;DHT22;1536;51.098;6.414;2023-01-08T09:28:26;11.00;99.90
3053;DHT22;1536;51.098;6.414;2023-01-08T09:30:53;11.00;99.90
3053;DHT22;1536;51.098;6.414;2023-01-08T09:33:20;11.10;99.90
3053;DHT22;1536;51.098;6.414;2023-01-08T09:35:46;11.10;99.90
3053;DHT22;1536;51.098;6.414;2023-01-08T09:38:13;11.20;99.90
3053;DHT22;1536;51.098;6.414;2023-01-08T09:40:45;11.20;99.90
3053;DHT22;1536;51.098;6.414;2023-01-08T09:43:17;11.30;99.90
3053;DHT22;1536;51.098;6.414;2023-01-08T09:45:49;11.30;99.90
3053;DHT22;1536;51.098;6.414;2023-01-08T09:48:17;11.30;99.90
3053;DHT22;1536;51.098;6.414;2023-01-08T09:50:46;11.40;99.90
3053;DHT22;1536;51.098;6.414;2023-01-08T09:53:15;11.40;99.90
3053;DHT22;1536;51.098;6.414;2023-01-08T09:55:44;11.40;99.90
3053;DHT22;1536;51.098;6.414;2023-01-08T09:58:20;11.40;99.90
3053;DHT22;1536;51.098;6.414;2023-01-08T10:00:50;11.40;99.90
3053;DHT22;1536;51.098;6.414;2023-01-08T10:03:17;11.40;99.90
3053;DHT22;1536;51.098;6.414;2023-01-08T10:05:44;11.40;99.90
3053;DHT22;1536;51.098;6.414;2023-01-08T10:08:13;11.50;99.90
3053;DHT22;1536;51.098;6.414;2023-01-08T10:10:40;11.50;99.90
3053;DHT22;1536;51.098;6.414;2023-01-08T10:13:10;11.50;99.90
3053;DHT22;1536;51.098;6.414;2023-01-08T10:15:38;11.50;99.90
3053;DHT22;1536;51.098;6.414;2023-01-08T10:18:10;11.60;99.90
3053;DHT22;1536;51.098;6.414;2023-01-08T10:20:38;11.60;99.90
3053;DHT22;1536;51.098;6.414;2023-01-08T10:23:09;11.60;99.90
3053;DHT22;1536;51.098;6.414;2023-01-08T10:25:48;11.60;99.90
3053;DHT22;1536;51.098;6.414;2023-01-08T10:28:19;11.60;99.90
3053;DHT22;1536;51.098;6.414;2023-01-08T10:30:46;11.60;99.90
3053;DHT22;1536;51.098;6.414;2023-01-08T10:33:19;11.60;99.90
3053;DHT22;1536;51.098;6.414;2023-01-08T10:35:52;11.60;99.90
3053;DHT22;1536;51.098;6.414;2023-01-08T10:38:26;11.60;99.90
3053;DHT22;1536;51.098;6.414;2023-01-08T10:40:53;11.60;99.90
3053;DHT22;1536;51.098;6.414;2023-01-08T10:43:23;11.70;99.90
3053;DHT22;1536;51.098;6.414;2023-01-08T10:45:57;11.70;99.90
3053;DHT22;1536;51.098;6.414;2023-01-08T10:48:30;11.70;99.90
3053;DHT22;1536;51.098;6.414;2023-01-08T10:51:05;11.80;99.90
3053;DHT22;1536;51.098;6.414;2023-01-08T10:53:32;11.80;99.90
3053;DHT22;1536;51.098;6.414;2023-01-08T10:56:00;11.80;99.90
3053;DHT22;1536;51.098;6.414;2023-01-08T10:58:28;11.80;99.90
3053;DHT22;1536;51.098;6.414;2023-01-08T11:00:56;11.80;99.90
3053;DHT22;1536;51.098;6.414;2023-01-08T11:03:35;11.80;99.90
3053;DHT22;1536;51.098;6.414;2023-01-08T11:06:09;11.90;99.90
3053;DHT22;1536;51.098;6.414;2023-01-08T11:08:36;11.90;99.90
3053;DHT22;1536;51.098;6.414;2023-01-08T11:11:03;11.90;99.90
3053;DHT22;1536;51.098;6.414;2023-01-08T11:13:30;11.90;99.90
3053;DHT22;1536;51.098;6.414;2023-01-08T11:16:01;11.90;99.90
3053;DHT22;1536;51.098;6.414;2023-01-08T11:18:29;11.90;99.90
3053;DHT22;1536;51.098;6.414;2023-01-08T11:21:07;11.90;99.90
3053;DHT22;1536;51.098;6.414;2023-01-08T11:23:35;11.90;99.90
3053;DHT22;1536;51.098;6.414;2023-01-08T11:26:05;12.00;99.90
3053;DHT22;1536;51.098;6.414;2023-01-08T11:28:45;12.00;99.90
3053;DHT22;1536;51.098;6.414;2023-01-08T11:31:14;12.00;99.90
3053;DHT22;1536;51.098;6.414;2023-01-08T11:33:44;11.90;99.90
3053;DHT22;1536;51.098;6.414;2023-01-08T11:36:21;11.70;99.90
3053;DHT22;1536;51.098;6.414;2023-01-08T11:38:50;11.60;99.90
3053;DHT22;1536;51.098;6.414;2023-01-08T11:41:28;11.50;99.90
3053;DHT22;1536;51.098;6.414;2023-01-08T11:46:56;11.30;99.90
3053;DHT22;1536;51.098;6.414;2023-01-08T11:49:40;11.30;99.90
3053;DHT22;1536;51.098;6.414;2023-01-08T11:52:22;11.20;99.90
3053;DHT22;1536;51.098;6.414;2023-01-08T11:55:09;11.20;99.90
3053;DHT22;1536;51.098;6.414;2023-01-08T11:57:51;11.10;99.90
3053;DHT22;1536;51.098;6.414;2023-01-08T12:00:37;11.10;99.90
3053;DHT22;1536;51.098;6.414;2023-01-08T12:03:14;11.10;99.90
3053;DHT22;1536;51.098;6.414;2023-01-08T12:05:45;11.10;99.90
3053;DHT22;1536;51.098;6.414;2023-01-08T12:08:20;11.10;99.90
3053;DHT22;1536;51.098;6.414;2023-01-08T12:10:59;11.10;99.90
3053;DHT22;1536;51.098;6.414;2023-01-08T12:13:43;11.10;99.90
3053;DHT22;1536;51.098;6.414;2023-01-08T12:16:26;11.10;99.90
3053;DHT22;1536;51.098;6.414;2023-01-08T12:22:01;11.10;99.90
3053;DHT22;1536;51.098;6.414;2023-01-08T12:24:47;11.20;99.90
3053;DHT22;1536;51.098;6.414;2023-01-08T12:27:22;11.20;99.90
3053;DHT22;1536;51.098;6.414;2023-01-08T12:30:00;11.20;99.90
3053;DHT22;1536;51.098;6.414;2023-01-08T12:32:34;11.20;99.90
3053;DHT22;1536;51.098;6.414;2023-01-08T12:35:09;11.20;99.90
3053;DHT22;1536;51.098;6.414;2023-01-08T12:37:42;11.30;99.90
3053;DHT22;1536;51.098;6.414;2023-01-08T12:40:19;11.30;99.90
3053;DHT22;1536;51.098;6.414;2023-01-08T12:42:47;11.40;99.90
3053;DHT22;1536;51.098;6.414;2023-01-08T12:45:21;11.40;99.90
3053;DHT22;1536;51.098;6.414;2023-01-08T12:47:55;11.40;99.90
3053;DHT22;1536;51.098;6.414;2023-01-08T12:50:38;11.50;99.90
3053;DHT22;1536;51.098;6.414;2023-01-08T12:53:13;11.50;99.90
3053;DHT22;1536;51.098;6.414;2023-01-08T12:55:51;11.50;99.90
3053;DHT22;1536;51.098;6.414;2023-01-08T12:58:30;11.60;99.90
3053;DHT22;1536;51.098;6.414;2023-01-08T13:01:07;11.60;99.90
3053;DHT22;1536;51.098;6.414;2023-01-08T13:03:37;11.60;99.90
3053;DHT22;1536;51.098;6.414;2023-01-08T13:06:07;11.60;99.90
3053;DHT22;1536;51.098;6.414;2023-01-08T13:08:36;11.70;99.90
3053;DHT22;1536;51.098;6.414;2023-01-08T13:11:05;11.70;99.90
3053;DHT22;1536;51.098;6.414;2023-01-08T13:13:34;11.70;99.90
3053;DHT22;1536;51.098;6.414;2023-01-08T13:16:06;11.70;99.90
3053;DHT22;1536;51.098;6.414;2023-01-08T13:18:33;11.70;99.90
3053;DHT22;1536;51.098;6.414;2023-01-08T13:21:02;11.70;99.90
3053;DHT22;1536;51.098;6.414;2023-01-08T13:23:32;11.70;99.90
3053;DHT22;1536;51.098;6.414;2023-01-08T13:26:02;11.70;99.90
3053;DHT22;1536;51.098;6.414;2023-01-08T13:28:41;11.70;99.90
3053;DHT22;1536;51.098;6.414;2023-01-08T13:31:25;11.70;99.90
3053;DHT22;1536;51.098;6.414;2023-01-08T13:33:53;11.60;99.90
3053;DHT22;1536;51.098;6.414;2023-01-08T13:36:23;11.60;99.90
3053;DHT22;1536;51.098;6.414;2023-01-08T13:39:02;11.60;99.90
3053;DHT22;1536;51.098;6.414;2023-01-08T13:41:31;11.60;99.90
3053;DHT22;1536;51.098;6.414;2023-01-08T13:44:02;11.60;99.90
3053;DHT22;1536;51.098;6.414;2023-01-08T13:46:31;11.60;99.90
3053;DHT22;1536;51.098;6.414;2023-01-08T13:49:01;11.60;99.90
3053;DHT22;1536;51.098;6.414;2023-01-08T13:54:21;11.60;99.90
3053;DHT22;1536;51.098;6.414;2023-01-08T13:57:00;11.50;99.90
3053;DHT22;1536;51.098;6.414;2023-01-08T13:59:42;11.50;99.90
3053;DHT22;1536;51.098;6.414;2023-01-08T14:02:28;11.60;99.90
3053;DHT22;1536;51.098;6.414;2023-01-08T14:04:56;11.50;99.90
3053;DHT22;1536;51.098;6.414;2023-01-08T14:07:24;11.60;99.90
3053;DHT22;1536;51.098;6.414;2023-01-08T14:09:51;11.60;99.90
3053;DHT22;1536;51.098;6.414;2023-01-08T14:12:20;11.60;99.90
3053;DHT22;1536;51.098;6.414;2023-01-08T14:14:50;11.60;99.90
3053;DHT22;1536;51.098;6.414;2023-01-08T14:17:21;11.70;99.90
3053;DHT22;1536;51.098;6.414;2023-01-08T14:19:49;11.80;99.90
3053;DHT22;1536;51.098;6.414;2023-01-08T14:22:19;11.80;99.90
3053;DHT22;1536;51.098;6.414;2023-01-08T14:24:54;11.80;99.90
3053;DHT22;1536;51.098;6.414;2023-01-08T14:27:24;11.70;99.90
3053;DHT22;1536;51.098;6.414;2023-01-08T14:29:53;11.70;99.90
3053;DHT22;1536;51.098;6.414;2023-01-08T14:32:23;11.70;99.90
3053;DHT22;1536;51.098;6.414;2023-01-08T14:34:51;11.70;99.90
3053;DHT22;1536;51.098;6.414;2023-01-08T14:37:19;11.70;99.90
3053;DHT22;1536;51.098;6.414;2023-01-08T14:39:46;11.70;99.90
3053;DHT22;1536;51.098;6.414;2023-01-08T14:42:17;11.80;99.90
3053;DHT22;1536;51.098;6.414;2023-01-08T14:45:05;11.70;99.90
3053;DHT22;1536;51.098;6.414;2023-01-08T14:47:36;11.70;99.90
3053;DHT22;1536;51.098;6.414;2023-01-08T14:50:04;11.70;99.90
3053;DHT22;1536;51.098;6.414;2023-01-08T14:52:33;11.70;99.90
3053;DHT22;1536;51.098;6.414;2023-01-08T14:55:01;11.70;99.90
3053;DHT22;1536;51.098;6.414;2023-01-08T14:57:29;11.60;99.90
3053;DHT22;1536;51.098;6.414;2023-01-08T14:59:57;11.60;99.90
3053;DHT22;1536;51.098;6.414;2023-01-08T15:02:29;11.60;99.90
3053;DHT22;1536;51.098;6.414;2023-01-08T15:05:02;11.60;99.90
3053;DHT22;1536;51.098;6.414;2023-01-08T15:07:29;11.60;99.90
3053;DHT22;1536;51.098;6.414;2023-01-08T15:09:58;11.60;99.90
3053;DHT22;1536;51.098;6.414;2023-01-08T15:12:28;11.60;99.90
3053;DHT22;1536;51.098;6.414;2023-01-08T15:15:07;11.60;99.90
3053;DHT22;1536;51.098;6.414;2023-01-08T15:17:35;11.60;99.90
3053;DHT22;1536;51.098;6.414;2023-01-08T15:20:02;11.50;99.90
3053;DHT22;1536;51.098;6.414;2023-01-08T15:22:29;11.50;99.90
3053;DHT22;1536;51.098;6.414;2023-01-08T15:24:58;11.50;99.90
3053;DHT22;1536;51.098;6.414;2023-01-08T15:27:25;11.50;99.90
3053;DHT22;1536;51.098;6.414;2023-01-08T15:29:53;11.50;99.90
3053;DHT22;1536;51.098;6.414;2023-01-08T15:32:27;11.50;99.90
3053;DHT22;1536;51.098;6.414;2023-01-08T15:34:56;11.50;99.90
3053;DHT22;1536;51.098;6.414;2023-01-08T15:37:23;11.50;99.90
3053;DHT22;1536;51.098;6.414;2023-01-08T15:39:50;11.50;99.90
3053;DHT22;1536;51.098;6.414;2023-01-08T15:42:18;11.50;99.90
3053;DHT22;1536;51.098;6.414;2023-01-08T15:44:59;11.60;99.90
3053;DHT22;1536;51.098;6.414;2023-01-08T15:47:26;11.50;99.90
3053;DHT22;1536;51.098;6.414;2023-01-08T15:49:53;11.60;99.90
3053;DHT22;1536;51.098;6.414;2023-01-08T15:52:22;11.60;99.90
3053;DHT22;1536;51.098;6.414;2023-01-08T15:54:54;11.60;99.90
3053;DHT22;1536;51.098;6.414;2023-01-08T15:57:21;11.50;99.90
3053;DHT22;1536;51.098;6.414;2023-01-08T15:59:47;11.60;99.90
3053;DHT22;1536;51.098;6.414;2023-01-08T16:02:14;11.60;99.90
3053;DHT22;1536;51.098;6.414;2023-01-08T16:04:41;11.50;99.90
3053;DHT22;1536;51.098;6.414;2023-01-08T16:07:08;11.50;99.90
3053;DHT22;1536;51.098;6.414;2023-01-08T16:09:36;11.50;99.90
3053;DHT22;1536;51.098;6.414;2023-01-08T16:12:03;11.50;99.90
3053;DHT22;1536;51.098;6.414;2023-01-08T16:14:30;11.50;99.90
3053;DHT22;1536;51.098;6.414;2023-01-08T16:16:58;11.50;99.90
3053;DHT22;1536;51.098;6.414;2023-01-08T16:19:28;11.50;99.90
3053;DHT22;1536;51.098;6.414;2023-01-08T16:21:57;11.40;99.90
3053;DHT22;1536;51.098;6.414;2023-01-08T16:24:24;11.40;99.90